Terminal Aerodrome Forecast
Issued by NWS

Home | Current Version | Previous Version | Text Only | Print | Product List | Glossary On
Versions: 1 2 3 4 5 6 7 8 9 10 11 12 13 14
681
FTUS45 KTFX 212344
TAFCTB
TAF
KCTB 212344Z 2200/2224 01009KT P6SM -SHRA OVC035
     FM221500 36009KT P6SM SCT009 OVC015 PROB30 2215/2220 4SM -RASN
      OVC006
     FM222000 01010KT P6SM SCT015 OVC020 PROB30 2220/2224 4SM -RASN
      OVC007=

USA.gov is the U.S. government's official web portal to all federal, state and local government web resources and services.